Time;durP1;ratioP1;P1;durP2;ratioP2;P2;SDS_P1;SDS_P2;PMS_P1;PMS_P2;Temp;Humidity;BMP_temperature;BMP_pressure;BME280_temperature;BME280_humidity;BME280_pressure;Samples;Min_cycle;Max_cycle;Signal;HPM_P1;HPM_P2
2022/02/09 00:04:04;;;;;;;;;;;;;;;28.93;56.47;101079.56;5069854;28;69096;-39
2022/02/09 00:09:04;;;;;;;;;;;;;;;29.02;56.38;101072.94;5075955;28;69859;-39
2022/02/09 00:11:46;;;;;;;;;;;;;;;29.06;56.60;101081.47;5077311;28;66786;-40
2022/02/09 00:28:25;;;;;;;;;;;;;;;29.27;59.20;101097.53;5071667;28;66025;-39
2022/02/09 00:36:24;;;;;;;;;;;;;;;29.34;60.24;101103.81;5074319;28;69514;-39
2022/02/09 00:41:47;;;;;;;;;;;;;;;29.40;60.57;101108.38;5072678;28;70332;-39
2022/02/09 01:39:51;;;;;;;;;;;;;;;29.91;57.86;101168.38;5072478;28;66103;-39
2022/02/09 01:56:09;;;;;;;;;;;;;;;29.98;57.10;101169.22;5067248;28;66727;-38
2022/02/09 01:58:39;;;;;;;;;;;;;;;30.01;57.49;101168.81;5072008;28;70114;-38
2022/02/09 02:01:09;;;;;;;;;;;;;;;30.02;56.75;101170.47;5078091;28;66813;-37
2022/02/09 02:03:38;;;;;;;;;;;;;;;30.03;57.04;101172.13;5069122;28;70295;-37
2022/02/09 02:06:08;;;;;;;;;;;;;;;30.04;56.55;101171.09;5064342;28;65656;-38
2022/02/09 02:08:38;;;;;;;;;;;;;;;30.07;56.92;101173.38;5071781;27;70302;-38
2022/02/09 02:11:48;;;;;;;;;;;;;;;30.08;56.53;101174.22;5068257;28;66167;-37
2022/02/09 02:17:14;;;;;;;;;;;;;;;30.11;56.84;101171.91;5071098;27;65399;-38
2022/02/09 02:36:07;;;;;;;;;;;;;;;30.23;56.12;101164.88;5069062;28;70234;-39
2022/02/09 02:38:53;;;;;;;;;;;;;;;30.24;56.19;101163.84;5077281;28;66847;-38
2022/02/09 02:42:23;;;;;;;;;;;;;;;30.27;55.74;101168.81;5073102;28;70769;-37
2022/02/09 03:09:45;;;;;;;;;;;;;;;30.45;55.50;101145.69;5074434;28;70043;-39
2022/02/09 03:12:15;;;;;;;;;;;;;;;30.46;55.01;101134.66;5070647;28;66090;-39
2022/02/09 03:14:56;;;;;;;;;;;;;;;30.48;55.31;101132.59;5087638;27;70350;-39
2022/02/09 03:17:34;;;;;;;;;;;;;;;30.50;55.01;101135.06;5075047;28;66044;-40
2022/02/09 03:20:32;;;;;;;;;;;;;;;30.53;54.88;101126.50;5069827;28;69729;-38
2022/02/09 03:23:02;;;;;;;;;;;;;;;30.54;54.77;101130.91;5072583;28;66335;-38
2022/02/09 03:25:51;;;;;;;;;;;;;;;30.57;55.01;101118.81;5052036;28;70370;-39
2022/02/09 03:31:29;;;;;;;;;;;;;;;30.60;54.68;101119.22;5074249;28;68916;-38
2022/02/09 03:47:51;;;;;;;;;;;;;;;30.72;54.38;101093.13;5072840;27;68912;-38
2022/02/09 03:58:23;;;;;;;;;;;;;;;30.82;54.15;101067.53;5072825;27;70726;-38
2022/02/09 04:00:53;;;;;;;;;;;;;;;30.84;54.39;101062.69;5072804;28;66134;-38
2022/02/09 04:03:24;;;;;;;;;;;;;;;30.86;54.46;101066.03;5071916;27;70851;-40
2022/02/09 04:05:54;;;;;;;;;;;;;;;30.88;53.81;101050.41;5073708;28;66309;-38
2022/02/09 04:08:29;;;;;;;;;;;;;;;30.90;53.90;101042.91;5076260;28;69113;-37
2022/02/09 04:11:05;;;;;;;;;;;;;;;30.93;53.91;101039.75;5071361;28;65159;-39
2022/02/09 04:16:31;;;;;;;;;;;;;;;30.95;54.04;101045.75;5075671;28;66129;-39
2022/02/09 04:36:15;;;;;;;;;;;;;;;31.06;53.63;101009.84;5073573;28;70296;-38
2022/02/09 04:38:54;;;;;;;;;;;;;;;31.10;53.65;101002.13;5075905;28;66094;-37
2022/02/09 04:41:57;;;;;;;;;;;;;;;31.10;53.24;100994.81;5075099;28;70684;-39
2022/02/09 04:44:43;;;;;;;;;;;;;;;31.13;53.23;100993.56;5075629;28;65916;-39
2022/02/09 04:47:30;;;;;;;;;;;;;;;31.14;53.65;100985.19;5089048;27;69582;-38
2022/02/09 04:50:27;;;;;;;;;;;;;;;31.16;53.87;100983.09;5070338;28;66880;-38
2022/02/09 04:55:52;;;;;;;;;;;;;;;31.19;53.67;100970.16;5072711;27;65585;-37
2022/02/09 05:01:33;;;;;;;;;;;;;;;31.23;53.34;100955.13;5073485;27;65281;-38
2022/02/09 05:04:07;;;;;;;;;;;;;;;31.27;53.53;100950.94;5073112;28;69277;-37
2022/02/09 05:25:50;;;;;;;;;;;;;;;31.40;52.70;100923.75;5070678;28;70022;-38
2022/02/09 05:28:19;;;;;;;;;;;;;;;31.43;53.17;100917.06;5071980;28;66498;-38
2022/02/09 05:30:52;;;;;;;;;;;;;;;31.44;53.18;100908.69;5072158;27;70160;-38
2022/02/09 05:33:25;;;;;;;;;;;;;;;31.46;52.82;100909.28;5067669;28;65161;-37
2022/02/09 05:35:54;;;;;;;;;;;;;;;31.48;52.85;100898.22;5068218;28;70061;-38
2022/02/09 05:38:24;;;;;;;;;;;;;;;31.50;53.14;100899.66;5079778;28;66082;-38
2022/02/09 05:40:54;;;;;;;;;;;;;;;31.51;52.57;100887.78;5066833;28;70689;-38
2022/02/09 05:43:26;;;;;;;;;;;;;;;31.52;53.04;100889.41;5071574;28;65098;-38
2022/02/09 05:51:38;;;;;;;;;;;;;;;31.57;52.56;100869.78;5065225;27;70539;-37
2022/02/09 05:56:48;;;;;;;;;;;;;;;31.61;52.70;100857.41;5074539;28;70497;-38
2022/02/09 06:01:59;;;;;;;;;;;;;;;31.65;52.94;100846.94;5070537;28;69712;-38
2022/02/09 06:04:29;;;;;;;;;;;;;;;31.67;52.68;100842.13;5070858;28;66465;-43
2022/02/09 06:07:00;;;;;;;;;;;;;;;31.67;52.51;100832.09;5057807;28;69352;-38
2022/02/09 06:09:31;;;;;;;;;;;;;;;31.69;52.20;100829.97;5092513;27;66514;-42
2022/02/09 06:12:17;;;;;;;;;;;;;;;31.71;52.54;100817.03;5077778;27;69871;-37
2022/02/09 06:20:22;;;;;;;;;;;;;;;31.79;52.24;100802.34;5069668;28;66655;-38
2022/02/09 06:22:52;;;;;;;;;;;;;;;31.82;52.40;100801.88;5043761;28;69876;-38
2022/02/09 06:25:23;;;;;;;;;;;;;;;31.85;52.28;100796.00;5068495;28;67072;-38
2022/02/09 06:27:53;;;;;;;;;;;;;;;31.87;52.45;100793.84;5069433;28;69043;-38
2022/02/09 06:30:23;;;;;;;;;;;;;;;31.88;52.52;100779.25;5067992;28;65935;-38
2022/02/09 06:32:54;;;;;;;;;;;;;;;31.90;52.06;100771.72;5074201;28;69034;-38
2022/02/09 06:35:24;;;;;;;;;;;;;;;31.92;52.49;100763.38;5069074;28;66650;-38
2022/02/09 06:37:56;;;;;;;;;;;;;;;31.95;51.89;100762.91;5072726;28;69860;-37
2022/02/09 06:40:27;;;;;;;;;;;;;;;31.98;52.01;100757.03;5088906;27;66537;-37
2022/02/09 06:42:57;;;;;;;;;;;;;;;31.99;51.83;100745.94;5075503;27;70112;-37
2022/02/09 06:45:32;;;;;;;;;;;;;;;32.01;52.28;100746.56;5071725;28;67050;-38
2022/02/09 06:48:02;;;;;;;;;;;;;;;32.03;51.90;100740.88;5067476;28;69847;-38
2022/02/09 06:50:39;;;;;;;;;;;;;;;32.05;52.00;100726.03;5069666;28;67371;-43
2022/02/09 06:55:55;;;;;;;;;;;;;;;32.12;52.11;100709.63;5071353;27;66369;-37
2022/02/09 06:58:57;;;;;;;;;;;;;;;32.15;51.92;100706.47;5074126;28;70651;-37
2022/02/09 07:01:19;;;;;;;;;;;;;;;32.17;51.51;100701.63;5071940;28;66727;-37
2022/02/09 07:03:48;;;;;;;;;;;;;;;32.19;51.84;100694.09;5072210;28;69480;-37
2022/02/09 07:06:18;;;;;;;;;;;;;;;32.23;51.66;100695.28;5072819;28;66580;-38
2022/02/09 07:08:48;;;;;;;;;;;;;;;32.26;51.79;100692.09;5076565;28;70695;-38
2022/02/09 07:11:18;;;;;;;;;;;;;;;32.29;51.55;100698.94;5064443;28;67303;-38
2022/02/09 07:13:48;;;;;;;;;;;;;;;32.31;51.57;100685.13;5075711;28;70272;-36
2022/02/09 07:16:19;;;;;;;;;;;;;;;32.34;51.30;100687.38;5075470;27;66159;-38
2022/02/09 07:18:50;;;;;;;;;;;;;;;32.36;51.45;100682.53;5070506;28;70091;-38
2022/02/09 07:21:25;;;;;;;;;;;;;;;32.40;51.36;100684.56;5066187;28;66268;-38
2022/02/09 07:23:58;;;;;;;;;;;;;;;32.42;51.38;100674.25;5070064;27;69128;-38
2022/02/09 07:26:40;;;;;;;;;;;;;;;32.46;51.46;100670.06;5070351;28;65243;-38
2022/02/09 07:29:11;;;;;;;;;;;;;;;32.53;51.13;100677.25;5076206;28;70292;-38
2022/02/09 07:31:42;;;;;;;;;;;;;;;32.55;51.11;100659.66;5074093;27;66261;-37
2022/02/09 07:34:13;;;;;;;;;;;;;;;32.59;50.76;100649.16;5068747;28;69424;-37
2022/02/09 07:36:45;;;;;;;;;;;;;;;32.61;50.92;100663.31;5078527;28;67192;-37
2022/02/09 07:39:18;;;;;;;;;;;;;;;32.65;50.75;100669.91;5075073;28;70091;-38
2022/02/09 07:41:50;;;;;;;;;;;;;;;32.68;50.74;100666.72;5073593;28;66210;-37
2022/02/09 07:44:46;;;;;;;;;;;;;;;32.71;50.61;100669.00;5072902;28;69466;-38
2022/02/09 07:50:29;;;;;;;;;;;;;;;32.75;50.73;100672.88;5073047;28;69799;-38
2022/02/09 07:53:01;;;;;;;;;;;;;;;32.79;50.48;100671.34;5076562;28;66239;-37
2022/02/09 07:55:30;;;;;;;;;;;;;;;32.81;50.49;100662.94;5072289;28;68645;-38
2022/02/09 07:58:00;;;;;;;;;;;;;;;32.83;50.36;100667.06;5072669;27;67261;-38
2022/02/09 08:00:31;;;;;;;;;;;;;;;32.86;50.32;100660.34;5075336;28;69884;-38
2022/02/09 08:03:01;;;;;;;;;;;;;;;32.88;50.18;100664.47;5076913;27;65289;-37
2022/02/09 08:05:32;;;;;;;;;;;;;;;32.90;50.08;100662.34;5073632;28;69255;-38
2022/02/09 08:08:02;;;;;;;;;;;;;;;32.92;50.04;100665.63;5079411;28;66647;-38
2022/02/09 08:10:45;;;;;;;;;;;;;;;32.93;49.96;100661.88;5072771;27;68747;-38
2022/02/09 08:24:37;;;;;;;;;;;;;;;33.03;49.75;100676.75;5073062;28;65999;-39
2022/02/09 08:27:20;;;;;;;;;;;;;;;33.06;49.73;100687.13;5068917;28;70607;-39
2022/02/09 08:35:01;;;;;;;;;;;;;;;33.11;49.56;100679.91;5069963;27;66904;-39
2022/02/09 08:37:30;;;;;;;;;;;;;;;33.12;49.48;100684.28;5072657;28;70173;-38
2022/02/09 08:40:01;;;;;;;;;;;;;;;33.13;49.47;100687.84;5077679;28;66702;-38
2022/02/09 08:42:33;;;;;;;;;;;;;;;33.17;49.77;100689.00;5070041;27;70191;-38
2022/02/09 08:45:03;;;;;;;;;;;;;;;33.17;49.63;100689.00;5078515;28;66796;-38
2022/02/09 08:47:51;;;;;;;;;;;;;;;33.19;49.58;100692.31;5072076;28;70498;-37
2022/02/09 08:50:21;;;;;;;;;;;;;;;33.21;49.73;100695.63;5069952;28;65624;-37
2022/02/09 08:52:52;;;;;;;;;;;;;;;33.25;49.63;100683.19;5071416;27;70399;-38
2022/02/09 08:55:21;;;;;;;;;;;;;;;33.27;49.70;100691.13;5072478;27;66116;-37
2022/02/09 08:57:51;;;;;;;;;;;;;;;33.29;49.49;100692.53;5070107;28;69734;-39
2022/02/09 09:00:28;;;;;;;;;;;;;;;33.32;49.44;100696.63;5074759;28;67738;-37
2022/02/09 09:03:45;;;;;;;;;;;;;;;33.33;49.55;100704.56;5068084;28;69751;-37
2022/02/09 09:06:02;;;;;;;;;;;;;;;33.36;49.51;100701.34;5069982;28;65269;-37
2022/02/09 09:11:27;;;;;;;;;;;;;;;33.39;49.51;100713.66;5077512;28;66121;-38
2022/02/09 10:34:02;;;;;;;;;;;;;;;33.55;51.00;100799.13;5073999;27;69603;-38
2022/02/09 10:36:48;;;;;;;;;;;;;;;33.54;51.51;100797.44;5063912;28;65903;-38
2022/02/09 10:39:23;;;;;;;;;;;;;;;33.42;52.47;100796.63;5065809;27;69361;-38
2022/02/09 10:41:59;;;;;;;;;;;;;;;33.30;52.88;100804.81;5083047;27;66383;-39
2022/02/09 10:44:45;;;;;;;;;;;;;;;33.18;53.43;100798.53;5072484;27;70198;-40
2022/02/09 10:47:25;;;;;;;;;;;;;;;33.07;53.70;100797.50;5070089;27;66191;-40
2022/02/09 10:50:07;;;;;;;;;;;;;;;32.99;54.19;100797.81;5073317;28;69085;-40
2022/02/09 10:52:40;;;;;;;;;;;;;;;32.91;54.94;100788.16;5073519;28;66035;-39
2022/02/09 10:55:28;;;;;;;;;;;;;;;32.87;55.77;100793.19;5057164;28;70316;-39
2022/02/09 10:58:02;;;;;;;;;;;;;;;32.83;55.70;100802.09;5070344;28;66420;-37
2022/02/09 11:00:32;;;;;;;;;;;;;;;32.80;54.94;100795.22;5072511;27;70585;-39
2022/02/09 11:03:02;;;;;;;;;;;;;;;32.77;54.78;100793.00;5070165;27;66638;-39
2022/02/09 11:05:32;;;;;;;;;;;;;;;32.74;54.61;100798.91;5069692;28;68829;-39
2022/02/09 11:08:05;;;;;;;;;;;;;;;32.75;54.65;100805.97;5069432;27;66570;-38
2022/02/09 11:10:35;;;;;;;;;;;;;;;32.71;54.29;100794.75;5057358;28;69249;-38
2022/02/09 11:13:09;;;;;;;;;;;;;;;32.69;53.98;100799.59;5069413;27;65352;-39
2022/02/09 11:15:41;;;;;;;;;;;;;;;32.67;53.90;100790.00;5063603;28;69806;-37
2022/02/09 11:18:15;;;;;;;;;;;;;;;32.64;54.13;100795.91;5072798;28;65647;-38
2022/02/09 11:21:05;;;;;;;;;;;;;;;32.61;54.05;100788.25;5067686;28;68630;-38
2022/02/09 11:24:07;;;;;;;;;;;;;;;32.59;53.98;100795.78;5068802;27;66556;-38
2022/02/09 11:26:48;;;;;;;;;;;;;;;32.56;54.41;100807.13;5073370;28;70549;-39
2022/02/09 11:34:49;;;;;;;;;;;;;;;32.51;54.16;100815.13;5074525;28;65681;-38
2022/02/09 11:37:28;;;;;;;;;;;;;;;32.46;54.38;100813.97;5069990;28;70178;-47
2022/02/09 11:40:01;;;;;;;;;;;;;;;32.45;54.47;100819.56;5062308;28;65503;-37
2022/02/09 11:43:08;;;;;;;;;;;;;;;32.43;54.43;100814.41;5080336;27;70453;-39
2022/02/09 11:45:45;;;;;;;;;;;;;;;32.40;54.73;100828.44;5067596;28;66274;-37
2022/02/09 12:09:09;;;;;;;;;;;;;;;32.22;55.33;100855.63;5073553;27;66703;-38
2022/02/09 12:11:42;;;;;;;;;;;;;;;32.15;55.69;100855.72;5088923;27;70042;-38
2022/02/09 12:14:32;;;;;;;;;;;;;;;32.10;54.98;100860.19;5071830;28;67115;-39
2022/02/09 12:17:26;;;;;;;;;;;;;;;32.03;54.46;100860.25;5074050;28;69914;-39
2022/02/09 12:20:19;;;;;;;;;;;;;;;32.00;55.11;100858.84;5072233;28;66688;-38
2022/02/09 12:23:24;;;;;;;;;;;;;;;31.96;55.62;100857.66;5076599;27;69242;-38
2022/02/09 12:25:54;;;;;;;;;;;;;;;31.94;55.93;100859.75;5078448;28;66129;-38
2022/02/09 12:28:35;;;;;;;;;;;;;;;31.96;56.19;100863.06;5072985;27;69890;-38
2022/02/09 12:31:09;;;;;;;;;;;;;;;31.96;55.93;100862.25;5071153;27;66613;-40
2022/02/09 12:33:47;;;;;;;;;;;;;;;31.95;56.12;100858.69;5074133;28;69295;-41
2022/02/09 12:36:19;;;;;;;;;;;;;;;31.93;55.69;100858.09;5078146;28;66878;-41
2022/02/09 12:38:57;;;;;;;;;;;;;;;31.90;56.38;100869.38;5078044;28;69679;-39
2022/02/09 12:41:27;;;;;;;;;;;;;;;31.88;56.14;100871.50;5071425;28;66819;-39
2022/02/09 12:44:05;;;;;;;;;;;;;;;31.85;56.08;100871.94;5084756;27;70640;-39
2022/02/09 12:46:37;;;;;;;;;;;;;;;31.83;56.59;100874.88;5077276;28;66555;-39
2022/02/09 12:49:08;;;;;;;;;;;;;;;31.81;56.48;100881.56;5076655;28;69871;-39
2022/02/09 12:51:39;;;;;;;;;;;;;;;31.79;56.37;100883.72;5071350;28;67977;-39
2022/02/09 12:54:10;;;;;;;;;;;;;;;31.78;56.15;100892.88;5069797;27;69323;-38
2022/02/09 12:56:41;;;;;;;;;;;;;;;31.76;56.15;100897.69;5070146;28;65480;-39
2022/02/09 12:59:12;;;;;;;;;;;;;;;31.74;56.46;100902.53;5068823;28;70191;-40
2022/02/09 13:01:48;;;;;;;;;;;;;;;31.73;57.18;100911.72;5071591;27;66690;-39
2022/02/09 13:04:29;;;;;;;;;;;;;;;31.74;56.76;100907.97;5073620;28;70322;-39
2022/02/09 13:06:59;;;;;;;;;;;;;;;31.68;55.19;100916.97;5069068;28;65463;-41
2022/02/09 13:09:29;;;;;;;;;;;;;;;31.65;55.82;100922.84;5077772;28;70040;-40
2022/02/09 13:11:59;;;;;;;;;;;;;;;31.63;56.25;100930.41;5064620;27;66369;-39
2022/02/09 13:14:37;;;;;;;;;;;;;;;31.64;56.35;100934.75;5069719;28;70072;-38
2022/02/09 13:17:23;;;;;;;;;;;;;;;31.59;56.39;100939.00;5070660;27;66345;-38
2022/02/09 13:20:26;;;;;;;;;;;;;;;31.63;56.85;100949.38;5068096;28;69454;-38
2022/02/09 13:55:12;;;;;;;;;;;;;;;31.23;59.67;100987.63;5062899;28;69486;-41
2022/02/09 14:06:33;;;;;;;;;;;;;;;30.63;58.13;100983.41;5067211;28;70205;-38
2022/02/09 14:11:24;;;;;;;;;;;;;;;30.37;57.33;100988.94;5069208;28;70757;-39
2022/02/09 14:55:28;;;;;;;;;;;;;;;29.13;55.51;101006.72;5073256;28;69117;-39
2022/02/09 14:58:08;;;;;;;;;;;;;;;29.08;55.29;101001.91;5089081;27;66063;-39
2022/02/09 15:01:03;;;;;;;;;;;;;;;29.04;55.30;101003.38;5071651;28;70017;-39
2022/02/09 15:07:22;;;;;;;;;;;;;;;28.96;55.10;101004.34;5067982;28;69275;-39
2022/02/09 15:09:21;;;;;;;;;;;;;;;28.90;55.20;100999.78;5055422;28;66227;-39
2022/02/09 15:24:38;;;;;;;;;;;;;;;28.72;56.32;100986.00;5062389;28;67072;-38
2022/02/09 15:27:12;;;;;;;;;;;;;;;28.77;56.35;100980.84;5062806;28;69888;-38
2022/02/09 15:29:43;;;;;;;;;;;;;;;28.78;55.91;100985.22;5069520;28;65290;-39
2022/02/09 15:32:37;;;;;;;;;;;;;;;28.75;55.54;100991.00;5065200;27;69329;-39
2022/02/09 15:35:19;;;;;;;;;;;;;;;28.73;55.28;100993.09;5068445;28;65213;-40
2022/02/09 15:37:58;;;;;;;;;;;;;;;28.70;54.81;100991.63;5069524;28;69039;-40
2022/02/09 15:40:45;;;;;;;;;;;;;;;28.68;54.60;100990.16;5077752;27;65853;-40
2022/02/09 16:05:38;;;;;;;;;;;;;;;28.69;50.34;100981.03;5067792;27;69367;-39
2022/02/09 16:06:11;;;;;;;;;;;;;;;28.65;49.68;100990.56;5065900;28;70270;-39
2022/02/09 16:20:37;;;;;;;;;;;;;;;28.56;48.79;101002.59;5065753;28;66277;-39
2022/02/09 16:33:15;;;;;;;;;;;;;;;28.40;47.82;101009.97;5069191;28;69492;-38
2022/02/09 16:46:53;;;;;;;;;;;;;;;28.26;47.71;101013.63;5079103;28;66123;-39
2022/02/09 16:49:30;;;;;;;;;;;;;;;28.24;47.56;101010.28;5077121;28;69802;-39
2022/02/09 16:52:11;;;;;;;;;;;;;;;28.21;47.43;101010.69;5077134;27;66540;-40
2022/02/09 16:54:56;;;;;;;;;;;;;;;28.20;47.35;101003.63;5080549;27;70878;-40
2022/02/09 17:11:16;;;;;;;;;;;;;;;28.11;46.98;100994.03;5077353;27;65059;-39
2022/02/09 17:20:00;;;;;;;;;;;;;;;28.04;46.54;100975.94;5082791;27;66271;-38
2022/02/09 17:22:30;;;;;;;;;;;;;;;28.02;47.13;100969.91;5063429;28;69925;-39
2022/02/09 17:25:00;;;;;;;;;;;;;;;28.02;46.83;100964.50;5070026;28;65224;-38
2022/02/09 17:27:30;;;;;;;;;;;;;;;28.02;46.48;100969.91;5076308;28;69349;-39
2022/02/09 17:30:27;;;;;;;;;;;;;;;28.00;46.47;100966.59;5076044;28;65960;-39
2022/02/09 17:33:06;;;;;;;;;;;;;;;27.98;46.47;100962.44;5072707;27;70031;-38
2022/02/09 17:35:46;;;;;;;;;;;;;;;27.97;46.20;100950.81;5075217;28;66064;-38
2022/02/09 17:38:28;;;;;;;;;;;;;;;27.95;45.76;100947.50;5072472;27;69714;-38
2022/02/09 17:57:39;;;;;;;;;;;;;;;27.85;45.73;100930.81;5086990;27;65305;-39
2022/02/09 18:00:16;;;;;;;;;;;;;;;27.82;45.50;100925.84;5075198;28;69477;-38
2022/02/09 18:02:47;;;;;;;;;;;;;;;27.82;45.61;100920.44;5074142;28;65573;-40
2022/02/09 18:05:25;;;;;;;;;;;;;;;27.82;45.16;100928.53;5074545;28;69430;-39
2022/02/09 18:08:05;;;;;;;;;;;;;;;27.80;45.43;100917.09;5071440;27;66631;-39
2022/02/09 18:10:50;;;;;;;;;;;;;;;27.80;45.47;100917.09;5072172;28;69322;-38
2022/02/09 18:29:49;;;;;;;;;;;;;;;27.74;44.92;100907.91;5076679;27;66329;-39
2022/02/09 18:45:54;;;;;;;;;;;;;;;27.70;45.08;100908.53;5074943;28;66821;-40
2022/02/09 18:58:09;;;;;;;;;;;;;;;27.67;44.86;100898.16;5025022;28;66717;-39
2022/02/09 19:02:40;;;;;;;;;;;;;;;27.65;44.87;100903.72;5058056;28;67168;-38
2022/02/09 19:05:22;;;;;;;;;;;;;;;27.65;45.04;100897.50;5075115;27;69030;-40
2022/02/09 19:32:19;;;;;;;;;;;;;;;27.50;44.43;100879.59;5081916;28;69057;-39
2022/02/09 19:44:22;;;;;;;;;;;;;;;27.45;44.33;100876.66;5081772;28;70395;-38
2022/02/09 19:48:49;;;;;;;;;;;;;;;27.44;44.17;100874.16;5079479;27;70465;-39
2022/02/09 19:56:40;;;;;;;;;;;;;;;27.39;43.59;100866.69;5078911;27;66508;-38
2022/02/09 19:59:21;;;;;;;;;;;;;;;27.37;43.56;100864.19;5071570;27;69990;-38
2022/02/09 20:01:53;;;;;;;;;;;;;;;27.35;43.51;100865.41;5075487;28;67055;-39
2022/02/09 20:04:24;;;;;;;;;;;;;;;27.35;43.76;100866.22;5072171;28;69923;-39
2022/02/09 20:06:54;;;;;;;;;;;;;;;27.35;43.68;100865.41;5090396;27;66502;-39
2022/02/09 20:09:57;;;;;;;;;;;;;;;27.33;43.15;100862.06;5076761;28;70509;-38
2022/02/09 20:12:43;;;;;;;;;;;;;;;27.32;43.27;100865.78;5082613;27;66550;-39
2022/02/09 20:15:16;;;;;;;;;;;;;;;27.32;43.42;100865.78;5075978;28;69785;-38
2022/02/09 20:17:47;;;;;;;;;;;;;;;27.33;43.78;100859.38;5079170;28;66846;-39
2022/02/09 20:20:24;;;;;;;;;;;;;;;27.35;43.64;100851.94;5069238;28;70316;-38
2022/02/09 20:22:56;;;;;;;;;;;;;;;27.36;44.07;100853.63;5069536;28;66694;-39
2022/02/09 20:25:29;;;;;;;;;;;;;;;27.38;43.99;100856.91;5074502;28;70012;-39
2022/02/09 20:27:58;;;;;;;;;;;;;;;27.40;44.31;100854.88;5078820;28;66571;-39
2022/02/09 20:30:36;;;;;;;;;;;;;;;27.42;44.47;100860.91;5077261;27;70416;-39
2022/02/09 20:33:11;;;;;;;;;;;;;;;27.42;44.59;100854.69;5068205;27;66178;-39
2022/02/09 20:35:41;;;;;;;;;;;;;;;27.41;44.49;100853.81;5067288;28;70219;-39
2022/02/09 20:38:17;;;;;;;;;;;;;;;27.42;44.37;100860.91;5074991;28;65997;-39
2022/02/09 20:40:54;;;;;;;;;;;;;;;27.42;44.43;100855.50;5070803;28;69221;-42
2022/02/09 20:43:25;;;;;;;;;;;;;;;27.43;44.34;100862.56;5080397;28;66641;-39
2022/02/09 20:46:00;;;;;;;;;;;;;;;27.43;44.61;100861.72;5073576;28;69160;-39
2022/02/09 20:48:30;;;;;;;;;;;;;;;27.44;44.49;100868.78;5076753;28;66791;-39
2022/02/09 20:51:01;;;;;;;;;;;;;;;27.44;44.47;100861.50;5072544;28;70404;-39
2022/02/09 20:53:37;;;;;;;;;;;;;;;27.45;44.63;100865.88;5073852;28;66600;-38
2022/02/09 20:56:06;;;;;;;;;;;;;;;27.44;44.51;100858.81;5076227;28;69244;-39
2022/02/09 20:58:41;;;;;;;;;;;;;;;27.45;44.69;100860.50;5079612;27;66810;-39
2022/02/09 21:01:16;;;;;;;;;;;;;;;27.45;44.36;100854.28;5071999;27;70691;-38
2022/02/09 21:03:54;;;;;;;;;;;;;;;27.46;44.56;100856.75;5071806;27;65459;-38
2022/02/09 21:18:00;;;;;;;;;;;;;;;27.47;44.65;100857.59;5072756;28;69892;-38
2022/02/09 21:26:17;;;;;;;;;;;;;;;27.46;44.75;100862.16;5073584;28;67148;-39
2022/02/09 21:53:38;;;;;;;;;;;;;;;27.45;44.39;100859.69;5074668;28;65739;-39
2022/02/09 21:58:52;;;;;;;;;;;;;;;27.44;43.96;100858.00;5076558;27;66061;-39
2022/02/09 22:20:56;;;;;;;;;;;;;;;27.39;43.81;100882.84;5070173;28;66266;-38
2022/02/09 22:26:47;;;;;;;;;;;;;;;27.38;43.70;100891.94;5072489;28;66415;-39
2022/02/09 22:32:48;;;;;;;;;;;;;;;27.36;43.81;100899.41;5070989;28;65849;-39
2022/02/09 22:54:32;;;;;;;;;;;;;;;27.31;44.12;100912.63;5073385;27;65560;-38
2022/02/09 22:57:03;;;;;;;;;;;;;;;27.31;43.92;100912.63;5076203;27;69915;-39
2022/02/09 22:59:44;;;;;;;;;;;;;;;27.30;44.02;100911.78;5075376;28;65966;-39
2022/02/09 23:02:25;;;;;;;;;;;;;;;27.31;44.52;100918.00;5065749;28;70160;-38
2022/02/09 23:08:51;;;;;;;;;;;;;;;27.46;46.07;100916.03;5073035;28;70388;-43
2022/02/09 23:10:55;;;;;;;;;;;;;;;27.58;46.63;100919.88;5063026;27;66868;-42
2022/02/09 23:13:35;;;;;;;;;;;;;;;27.71;47.11;100926.38;5072180;28;69766;-42
2022/02/09 23:16:22;;;;;;;;;;;;;;;27.82;47.23;100931.22;5072764;28;65569;-42
